KPMU

Panola County Airport

Batesville, Mississippi, USA
METAR KPMU 141235Z AUTO VRB04KT 10SM OVC006 12/12 A2987 RMK AO2
Observed Flight Rules
Dec-14 @ 12:35 UTC (33 minutes ago) Instrument Flight Rules
Wind Visibility Clouds
Variable at 4 knots 10 miles
  • Overcast at 600' AGL
Temperatures Readings
Current 12°C / 54°F
Dewpoint 12°C / 54°F
Humidity 100%
Altimeter 29.87" Hg
Pressure 1012 hPa
Elevation 67
METAR KPMU 141235Z AUTO VRB04KT 10SM OVC006 12/12 A2987 RMK AO2
Observed Flight Rules
Dec-14 @ 12:35 UTC
(33 minutes ago)
IFR
Wind Visibility
Variable at 4 knots 10 miles
Clouds
  • Overcast at 600' AGL
Temperature Dewpoint
12°C / 54°F 12°C / 54°F
Humidity Altimeter Pressure
100% 29.87" Hg 1012 hPa